createdAt,value
2022-08-14T00:01:32.138Z,23.42
2022-08-14T00:03:59.397Z,23.35
2022-08-14T00:06:28.727Z,23.37
2022-08-14T00:08:58.900Z,23.30
2022-08-14T00:11:31.370Z,23.28
2022-08-14T00:14:01.425Z,23.29
2022-08-14T00:16:41.547Z,23.21
2022-08-14T00:19:21.216Z,23.14
2022-08-14T00:21:52.280Z,23.14
2022-08-14T00:24:30.701Z,22.95
2022-08-14T00:27:02.240Z,22.74
2022-08-14T00:29:33.217Z,22.74
2022-08-14T00:32:51.948Z,22.80
2022-08-14T00:34:56.459Z,22.65
2022-08-14T00:37:23.287Z,22.67
2022-08-14T00:39:52.853Z,22.68
2022-08-14T00:42:55.243Z,22.56
2022-08-14T00:45:11.504Z,22.50
2022-08-14T00:47:44.729Z,22.54
2022-08-14T00:50:16.734Z,22.64
2022-08-14T00:52:52.345Z,22.62
2022-08-14T00:55:20.264Z,22.56
2022-08-14T00:58:07.517Z,22.65
2022-08-14T01:00:37.587Z,22.63
2022-08-14T01:03:12.110Z,22.55
2022-08-14T01:05:50.777Z,22.58
2022-08-14T01:08:57.697Z,22.57
2022-08-14T01:11:18.841Z,22.48
2022-08-14T01:13:55.760Z,22.52
2022-08-14T01:16:31.031Z,22.39
2022-08-14T01:19:17.489Z,22.52
2022-08-14T01:21:53.502Z,22.44
2022-08-14T01:24:28.912Z,22.45
2022-08-14T01:27:00.020Z,22.34
2022-08-14T01:29:58.087Z,22.29
2022-08-14T01:32:22.847Z,22.22
2022-08-14T01:35:17.567Z,22.19
2022-08-14T01:37:54.527Z,22.14
2022-08-14T01:40:25.657Z,22.24
2022-08-14T01:43:07.967Z,22.21
2022-08-14T01:45:40.797Z,22.15
2022-08-14T01:48:13.531Z,22.23
2022-08-14T01:50:41.925Z,22.31
2022-08-14T01:53:09.583Z,22.32
2022-08-14T01:55:40.228Z,22.32
2022-08-14T01:58:19.961Z,22.35
2022-08-14T02:00:56.373Z,22.25
2022-08-14T02:03:24.707Z,22.37
2022-08-14T02:05:59.843Z,22.23
2022-08-14T02:08:34.773Z,22.29
2022-08-14T02:11:18.934Z,22.19
2022-08-14T02:13:52.298Z,22.41
2022-08-14T02:16:26.444Z,22.32
2022-08-14T02:18:55.541Z,22.25
2022-08-14T02:21:23.303Z,22.34
2022-08-14T02:23:53.672Z,22.00
2022-08-14T02:26:30.641Z,22.13
2022-08-14T02:29:09.824Z,22.03
2022-08-14T02:31:44.047Z,22.13
2022-08-14T02:34:22.509Z,22.73
2022-08-14T02:37:06.166Z,23.02
2022-08-14T02:39:37.172Z,23.13
2022-08-14T02:42:05.868Z,23.32
2022-08-14T02:44:39.559Z,23.40
2022-08-14T02:47:14.946Z,23.28
2022-08-14T02:49:45.970Z,23.36
2022-08-14T02:52:55.441Z,23.34
2022-08-14T02:55:06.885Z,23.41
2022-08-14T02:57:39.910Z,23.37
2022-08-14T03:00:10.525Z,23.21
2022-08-14T03:02:56.206Z,23.24
2022-08-14T03:05:24.059Z,23.25
2022-08-14T03:07:52.970Z,23.24
2022-08-14T03:10:25.566Z,23.36
2022-08-14T03:12:55.223Z,23.33
2022-08-14T03:15:22.206Z,23.17
2022-08-14T03:17:57.119Z,23.38
2022-08-14T03:20:25.707Z,23.06
2022-08-14T03:22:52.742Z,23.10
2022-08-14T03:25:22.148Z,23.03
2022-08-14T03:27:58.344Z,23.05
2022-08-14T03:30:38.948Z,23.06
2022-08-14T03:33:10.290Z,23.03
2022-08-14T03:35:40.345Z,23.13
2022-08-14T03:39:11.817Z,23.07
2022-08-14T03:41:17.767Z,23.11
2022-08-14T03:43:46.711Z,23.08
2022-08-14T03:46:52.573Z,22.97
2022-08-14T03:49:24.273Z,22.83
2022-08-14T03:51:55.556Z,22.65
2022-08-14T03:54:24.538Z,22.41
2022-08-14T03:56:51.332Z,22.34
2022-08-14T03:59:19.696Z,21.95
2022-08-14T04:01:58.161Z,21.76
2022-08-14T04:04:28.270Z,21.53
2022-08-14T04:06:55.087Z,21.60
2022-08-14T04:09:26.821Z,21.67
2022-08-14T04:11:53.849Z,21.74
2022-08-14T04:14:20.658Z,21.68
2022-08-14T04:16:50.125Z,21.79
2022-08-14T04:19:20.556Z,21.89
2022-08-14T04:22:03.454Z,21.86
2022-08-14T04:24:38.492Z,21.84
2022-08-14T04:27:11.586Z,21.70
2022-08-14T04:29:40.509Z,21.59
2022-08-14T04:33:10.370Z,21.71
2022-08-14T04:34:57.355Z,21.74
2022-08-14T04:37:43.504Z,21.74
2022-08-14T04:40:35.353Z,21.71
2022-08-14T04:43:25.219Z,21.69
2022-08-14T04:45:52.254Z,21.71
2022-08-14T04:48:39.645Z,21.76
2022-08-14T04:51:16.210Z,22.17
2022-08-14T04:53:45.771Z,22.06
2022-08-14T04:56:34.291Z,21.84
2022-08-14T04:59:10.195Z,21.65
2022-08-14T05:01:47.869Z,21.73
2022-08-14T05:04:19.872Z,21.66
2022-08-14T05:06:49.130Z,21.54
2022-08-14T05:09:17.252Z,21.54
2022-08-14T05:11:44.736Z,21.60
2022-08-14T05:14:33.803Z,21.78
2022-08-14T05:17:01.625Z,21.90
2022-08-14T05:19:31.967Z,22.08
2022-08-14T05:22:17.836Z,22.22
2022-08-14T05:24:50.628Z,22.11
2022-08-14T05:27:23.978Z,22.00
2022-08-14T05:29:53.292Z,21.85
2022-08-14T05:32:22.132Z,21.78
2022-08-14T05:34:49.699Z,21.74
2022-08-14T05:37:16.316Z,21.35
2022-08-14T05:39:43.493Z,21.13
2022-08-14T05:42:21.551Z,21.07
2022-08-14T05:44:54.193Z,20.88
2022-08-14T05:47:22.183Z,21.05
2022-08-14T05:49:48.876Z,20.95
2022-08-14T05:52:18.110Z,20.99
2022-08-14T05:54:45.205Z,21.04
2022-08-14T05:57:11.935Z,21.12
2022-08-14T05:59:40.045Z,20.80
2022-08-14T06:02:11.123Z,20.62
2022-08-14T06:04:39.092Z,20.70
2022-08-14T06:07:06.633Z,20.23
2022-08-14T06:09:35.877Z,20.34
2022-08-14T06:12:08.748Z,20.66
2022-08-14T06:14:36.954Z,20.76
2022-08-14T06:17:07.257Z,21.12
2022-08-14T06:19:36.775Z,21.18
2022-08-14T06:22:03.962Z,21.02
2022-08-14T06:24:35.003Z,21.12
2022-08-14T06:27:09.975Z,21.38
2022-08-14T06:29:38.711Z,21.48
2022-08-14T06:32:38.051Z,21.35
2022-08-14T06:35:11.156Z,21.32
2022-08-14T06:37:47.715Z,20.86
2022-08-14T06:40:26.743Z,20.88
2022-08-14T06:43:00.275Z,20.98
2022-08-14T06:45:30.353Z,21.04
2022-08-14T06:47:58.810Z,21.12
2022-08-14T06:50:28.701Z,21.02
2022-08-14T06:52:57.208Z,21.12
2022-08-14T06:55:27.685Z,20.71
2022-08-14T06:57:54.803Z,20.52
2022-08-14T07:00:27.047Z,20.87
2022-08-14T07:03:15.306Z,20.76
2022-08-14T07:05:55.318Z,20.52
2022-08-14T07:08:31.378Z,20.62
2022-08-14T07:11:01.214Z,20.90
2022-08-14T07:13:30.535Z,20.89
2022-08-14T07:16:00.706Z,20.80
2022-08-14T07:18:35.061Z,20.83
2022-08-14T07:21:03.525Z,20.86
2022-08-14T07:23:31.329Z,20.75
2022-08-14T07:25:59.888Z,20.49
2022-08-14T07:28:42.923Z,20.03
2022-08-14T07:31:11.996Z,19.78
2022-08-14T07:33:50.174Z,20.02
2022-08-14T07:36:27.161Z,20.20
2022-08-14T07:39:03.339Z,20.37
2022-08-14T07:41:38.943Z,20.36
2022-08-14T07:44:31.903Z,20.37
2022-08-14T07:46:52.344Z,20.46
2022-08-14T07:49:20.965Z,20.64
2022-08-14T07:51:50.974Z,20.84
2022-08-14T07:54:23.572Z,20.93
2022-08-14T07:57:06.428Z,20.86
2022-08-14T07:59:43.741Z,20.71
2022-08-14T08:02:18.937Z,20.75
2022-08-14T08:04:49.350Z,20.70
2022-08-14T08:07:16.742Z,20.60
2022-08-14T08:09:49.328Z,20.58
2022-08-14T08:12:21.708Z,20.59
2022-08-14T08:14:56.765Z,20.61
2022-08-14T08:17:35.066Z,20.62
2022-08-14T08:20:06.686Z,20.47
2022-08-14T08:22:36.155Z,20.34
2022-08-14T08:25:09.751Z,20.42
2022-08-14T08:27:44.528Z,20.82
2022-08-14T08:30:12.381Z,20.79
2022-08-14T08:32:43.754Z,20.90
2022-08-14T08:35:46.141Z,20.81
2022-08-14T08:39:18.417Z,20.63
2022-08-14T08:41:11.060Z,20.53
2022-08-14T08:43:38.968Z,20.48
2022-08-14T08:46:21.161Z,20.58
2022-08-14T08:51:30.662Z,20.61
2022-08-14T08:54:05.770Z,20.70
2022-08-14T08:56:46.582Z,20.68
2022-08-14T08:59:21.049Z,21.02
2022-08-14T09:01:59.812Z,21.41
2022-08-14T09:04:35.653Z,21.83
2022-08-14T09:07:14.514Z,22.04
2022-08-14T09:09:53.987Z,22.07
2022-08-14T09:12:25.542Z,22.05
2022-08-14T09:14:54.351Z,21.89
2022-08-14T09:17:26.141Z,21.98
2022-08-14T09:19:53.691Z,21.69
2022-08-14T09:22:34.669Z,21.69
2022-08-14T09:25:07.557Z,21.82
2022-08-14T09:27:36.546Z,21.77
2022-08-14T09:30:31.655Z,21.89
2022-08-14T09:33:09.230Z,22.34
2022-08-14T09:35:44.429Z,22.84
2022-08-14T09:38:34.558Z,23.70
2022-08-14T09:41:13.566Z,24.38
2022-08-14T09:43:55.137Z,24.85
2022-08-14T09:46:27.705Z,25.49
2022-08-14T09:49:16.530Z,26.33
2022-08-14T09:51:58.348Z,27.28
2022-08-14T09:54:37.480Z,28.19
2022-08-14T09:57:06.649Z,28.62
2022-08-14T09:59:44.827Z,28.77
2022-08-14T10:02:28.029Z,28.98
2022-08-14T10:05:10.104Z,29.23
2022-08-14T10:07:53.906Z,29.15
2022-08-14T10:10:28.488Z,29.39
2022-08-14T10:13:06.099Z,29.86
2022-08-14T10:15:46.715Z,30.28
2022-08-14T10:18:17.433Z,30.59
2022-08-14T10:21:00.713Z,30.64
2022-08-14T10:23:38.545Z,30.19
2022-08-14T10:26:08.645Z,30.92
2022-08-14T10:29:17.856Z,31.41
2022-08-14T10:31:43.261Z,31.65
2022-08-14T10:34:19.860Z,32.34
2022-08-14T10:37:03.990Z,32.66
2022-08-14T10:39:46.758Z,32.26
2022-08-14T10:42:41.743Z,31.87
2022-08-14T10:45:21.714Z,32.56
2022-08-14T10:48:09.481Z,33.23
2022-08-14T10:50:42.487Z,32.78
2022-08-14T10:53:09.392Z,31.66
2022-08-14T10:55:45.132Z,31.78
2022-08-14T10:58:14.821Z,30.74
2022-08-14T11:00:56.643Z,30.68
2022-08-14T11:03:35.724Z,30.19
2022-08-14T11:06:20.238Z,28.52
2022-08-14T11:08:48.312Z,28.24
2022-08-14T11:11:19.274Z,27.91
2022-08-14T11:13:46.642Z,27.88
2022-08-14T11:16:15.986Z,28.39
2022-08-14T11:18:50.875Z,29.07
2022-08-14T11:21:23.016Z,29.33
2022-08-14T11:23:53.423Z,29.18
2022-08-14T11:26:22.724Z,29.00
2022-08-14T11:28:51.089Z,28.57
2022-08-14T11:31:21.890Z,28.27
2022-08-14T11:33:57.909Z,28.22
2022-08-14T11:36:35.375Z,28.28
2022-08-14T11:39:33.782Z,28.39
2022-08-14T11:42:58.572Z,28.01
2022-08-14T11:45:04.677Z,28.02
2022-08-14T11:47:44.092Z,28.05
2022-08-14T11:50:36.205Z,27.81
2022-08-14T11:53:28.650Z,28.07
2022-08-14T11:56:06.161Z,27.98
2022-08-14T11:58:34.442Z,28.09
2022-08-14T12:01:10.745Z,27.77
2022-08-14T12:03:51.459Z,27.77
2022-08-14T12:06:29.064Z,27.77
2022-08-14T12:09:08.785Z,27.87
2022-08-14T12:11:43.935Z,27.91
2022-08-14T12:14:31.186Z,27.90
2022-08-14T12:17:11.767Z,27.99
2022-08-14T12:19:46.124Z,28.53
2022-08-14T12:22:29.527Z,28.71
2022-08-14T12:24:57.287Z,28.41
2022-08-14T12:27:52.733Z,28.09
2022-08-14T12:30:42.451Z,27.50
2022-08-14T12:33:31.171Z,26.84
2022-08-14T12:36:06.503Z,26.31
2022-08-14T12:38:41.250Z,25.86
2022-08-14T12:41:21.311Z,25.65
2022-08-14T12:43:59.675Z,25.55
2022-08-14T12:46:35.871Z,25.37
2022-08-14T12:49:25.867Z,25.12
2022-08-14T12:51:57.959Z,24.91
2022-08-14T12:54:28.455Z,24.81
2022-08-14T12:57:19.791Z,24.75
2022-08-14T12:59:49.573Z,24.59
2022-08-14T13:02:26.167Z,24.51
2022-08-14T13:04:55.770Z,24.38
2022-08-14T13:07:24.167Z,24.41
2022-08-14T13:09:55.696Z,24.34
2022-08-14T13:12:32.451Z,24.50
2022-08-14T13:15:08.757Z,24.53
2022-08-14T13:17:45.559Z,24.48
2022-08-14T13:20:24.666Z,24.61
2022-08-14T13:22:56.213Z,24.74
2022-08-14T13:25:27.641Z,24.76
2022-08-14T13:27:57.657Z,24.59
2022-08-14T13:30:25.794Z,24.41
2022-08-14T13:32:54.579Z,24.60
2022-08-14T13:35:24.723Z,24.56
2022-08-14T13:37:53.671Z,24.33
2022-08-14T13:40:26.275Z,24.00
2022-08-14T13:42:56.765Z,23.68
2022-08-14T13:45:24.189Z,23.32
2022-08-14T13:48:00.274Z,23.12
2022-08-14T13:50:27.102Z,22.77
2022-08-14T13:52:55.061Z,22.71
2022-08-14T13:55:41.158Z,22.54
2022-08-14T13:58:33.533Z,22.26
2022-08-14T14:01:01.410Z,22.00
2022-08-14T14:03:30.517Z,21.92
2022-08-14T14:06:00.114Z,21.84
2022-08-14T14:08:46.001Z,21.81
2022-08-14T14:11:16.082Z,22.02
2022-08-14T14:13:48.322Z,22.05
2022-08-14T14:16:26.323Z,21.84
2022-08-14T14:19:08.812Z,21.60
2022-08-14T14:21:40.714Z,21.42
2022-08-14T14:24:15.056Z,21.33
2022-08-14T14:26:49.977Z,21.32
2022-08-14T14:29:19.282Z,21.38
2022-08-14T14:31:53.167Z,21.59
2022-08-14T14:34:29.540Z,21.69
2022-08-14T14:37:02.789Z,21.42
2022-08-14T14:39:37.405Z,21.41
2022-08-14T14:42:06.539Z,21.61
2022-08-14T14:44:35.895Z,21.69
2022-08-14T14:47:03.008Z,22.07
2022-08-14T14:49:51.617Z,22.55
2022-08-14T14:52:27.894Z,22.87
2022-08-14T14:54:57.621Z,22.88
2022-08-14T14:57:35.364Z,23.00
2022-08-14T15:00:05.620Z,23.09
2022-08-14T15:02:34.857Z,23.31
2022-08-14T15:05:05.584Z,23.86
2022-08-14T15:07:33.120Z,24.28
2022-08-14T15:10:00.363Z,24.57
2022-08-14T15:12:34.262Z,24.76
2022-08-14T15:15:08.925Z,24.92
2022-08-14T15:17:40.975Z,24.97
2022-08-14T15:20:16.854Z,24.76
2022-08-14T15:22:51.261Z,24.57
2022-08-14T15:25:18.774Z,24.41
2022-08-14T15:27:50.131Z,24.44
2022-08-14T15:30:23.802Z,24.55
2022-08-14T15:32:53.195Z,24.88
2022-08-14T15:35:22.753Z,24.78
2022-08-14T15:37:55.497Z,24.59
2022-08-14T15:40:23.449Z,24.29
2022-08-14T15:42:50.067Z,24.12
2022-08-14T15:45:17.303Z,24.05
2022-08-14T15:47:44.136Z,23.91
2022-08-14T15:50:13.043Z,24.02
2022-08-14T15:52:43.255Z,24.04
2022-08-14T15:55:14.691Z,24.14
2022-08-14T15:58:01.980Z,24.38
2022-08-14T16:00:51.607Z,24.97
2022-08-14T16:03:27.400Z,25.21
2022-08-14T16:06:10.713Z,25.76
2022-08-14T16:08:41.617Z,25.92
2022-08-14T16:11:09.864Z,25.96
2022-08-14T16:13:47.599Z,25.84
2022-08-14T16:16:47.379Z,25.68
2022-08-14T16:19:16.277Z,25.70
2022-08-14T16:22:01.351Z,25.68
2022-08-14T16:24:33.293Z,25.43
2022-08-14T16:27:01.383Z,25.39
2022-08-14T16:29:31.465Z,25.57
2022-08-14T16:32:01.592Z,25.65
2022-08-14T16:34:46.736Z,25.89
2022-08-14T16:37:16.727Z,25.90
2022-08-14T16:39:44.175Z,25.94
2022-08-14T16:43:02.843Z,25.83
2022-08-14T16:45:02.043Z,25.77
2022-08-14T16:47:35.233Z,25.71
2022-08-14T16:50:08.427Z,25.57
2022-08-14T16:52:43.917Z,25.39
2022-08-14T16:55:22.467Z,25.34
2022-08-14T16:57:58.865Z,25.46
2022-08-14T17:00:32.669Z,25.44
2022-08-14T17:03:11.691Z,25.45
2022-08-14T17:05:46.993Z,25.40
2022-08-14T17:08:32.712Z,25.43
2022-08-14T17:11:11.168Z,25.44
2022-08-14T17:13:57.913Z,25.28
2022-08-14T17:16:35.542Z,25.35
2022-08-14T17:19:04.817Z,25.51
2022-08-14T17:21:41.120Z,25.23
2022-08-14T17:24:56.986Z,25.15
2022-08-14T17:27:04.045Z,24.92
2022-08-14T17:29:34.339Z,24.98
2022-08-14T17:32:22.505Z,24.87
2022-08-14T17:34:57.680Z,24.71
2022-08-14T17:37:36.249Z,24.57
2022-08-14T17:40:20.834Z,24.30
2022-08-14T17:42:51.496Z,24.05
2022-08-14T17:45:41.179Z,23.93
2022-08-14T17:49:09.988Z,23.94
2022-08-14T17:51:14.252Z,23.68
2022-08-14T17:53:53.569Z,23.53
2022-08-14T17:56:30.908Z,23.47
2022-08-14T17:59:05.640Z,23.39
2022-08-14T18:01:37.389Z,23.15
2022-08-14T18:04:24.366Z,23.00
2022-08-14T18:06:58.604Z,22.75
2022-08-14T18:09:40.075Z,22.58
2022-08-14T18:12:37.043Z,22.17
2022-08-14T18:15:16.807Z,21.86
2022-08-14T18:17:53.063Z,21.68
2022-08-14T18:21:40.163Z,21.60
2022-08-14T18:23:16.193Z,21.62
2022-08-14T18:25:50.483Z,21.35
2022-08-14T18:28:47.826Z,21.31
2022-08-14T18:31:42.326Z,21.08
2022-08-14T18:34:32.087Z,20.92
2022-08-14T18:37:14.280Z,20.82
2022-08-14T18:40:01.266Z,20.80
2022-08-14T18:42:30.545Z,20.98
2022-08-14T18:45:01.191Z,21.02
2022-08-14T18:48:03.299Z,20.91
2022-08-14T18:50:27.041Z,20.81
2022-08-14T18:53:09.040Z,20.74
2022-08-14T18:55:35.678Z,20.78
2022-08-14T18:58:02.618Z,20.73
2022-08-14T19:00:39.783Z,20.55
2022-08-14T19:03:08.126Z,20.29
2022-08-14T19:05:37.658Z,20.06
2022-08-14T19:08:27.003Z,19.85
2022-08-14T19:11:04.222Z,19.77
2022-08-14T19:13:48.630Z,19.72
2022-08-14T19:16:22.979Z,19.84
2022-08-14T19:19:00.070Z,19.80
2022-08-14T19:21:44.489Z,19.91
2022-08-14T19:24:27.244Z,19.95
2022-08-14T19:27:23.589Z,19.78
2022-08-14T19:30:20.546Z,19.79
2022-08-14T19:32:51.113Z,19.82
2022-08-14T19:35:20.070Z,19.98
2022-08-14T19:37:52.510Z,19.97
2022-08-14T19:40:42.053Z,20.03
2022-08-14T19:43:10.417Z,20.14
2022-08-14T19:45:38.634Z,20.26
2022-08-14T19:48:46.811Z,20.43
2022-08-14T19:51:24.378Z,20.60
2022-08-14T19:54:13.211Z,20.48
2022-08-14T19:56:45.285Z,20.49
2022-08-14T19:59:18.127Z,20.46
2022-08-14T20:01:50.355Z,20.29
2022-08-14T20:04:47.606Z,20.18
2022-08-14T20:07:27.193Z,20.17
2022-08-14T20:11:04.859Z,20.14
2022-08-14T20:13:23.586Z,20.00
2022-08-14T20:18:50.267Z,19.89
2022-08-14T20:21:18.466Z,19.92
2022-08-14T20:23:49.953Z,19.77
2022-08-14T20:26:31.568Z,19.83
2022-08-14T20:29:04.540Z,19.85
2022-08-14T20:31:37.075Z,19.73
2022-08-14T20:34:18.775Z,19.88
2022-08-14T20:37:01.739Z,20.01
2022-08-14T20:39:34.369Z,20.14
2022-08-14T20:42:30.218Z,20.09
2022-08-14T20:45:18.991Z,19.92
2022-08-14T20:47:58.475Z,19.72
2022-08-14T20:50:29.653Z,19.77
2022-08-14T20:52:58.360Z,19.79
2022-08-14T20:55:29.067Z,19.74
2022-08-14T20:57:57.807Z,19.75
2022-08-14T21:00:51.683Z,19.70
2022-08-14T21:03:56.751Z,19.67
2022-08-14T21:07:23.539Z,19.56
2022-08-14T21:09:21.204Z,19.48
2022-08-14T21:12:08.041Z,19.55
2022-08-14T21:14:55.008Z,19.53
2022-08-14T21:17:25.272Z,19.51
2022-08-14T21:19:53.303Z,19.40
2022-08-14T21:22:19.939Z,19.41
2022-08-14T21:24:48.624Z,19.42
2022-08-14T21:27:19.771Z,19.32
2022-08-14T21:29:55.651Z,19.40
2022-08-14T21:32:34.610Z,19.44
2022-08-14T21:35:08.457Z,19.41
2022-08-14T21:37:43.993Z,19.52
2022-08-14T21:40:40.907Z,19.54
2022-08-14T21:43:00.434Z,19.69
2022-08-14T21:45:27.082Z,19.58
2022-08-14T21:47:56.408Z,19.46
2022-08-14T21:50:39.487Z,19.24
2022-08-14T21:53:12.928Z,19.38
2022-08-14T21:55:42.475Z,19.37
2022-08-14T21:58:53.806Z,19.35
2022-08-14T22:00:57.285Z,19.59
2022-08-14T22:03:24.488Z,19.64
2022-08-14T22:05:55.093Z,19.59
2022-08-14T22:08:26.663Z,19.51
2022-08-14T22:10:54.655Z,19.52
2022-08-14T22:13:26.515Z,19.58
2022-08-14T22:15:59.700Z,19.92
2022-08-14T22:18:29.857Z,19.71
2022-08-14T22:20:57.749Z,19.57
2022-08-14T22:23:25.720Z,19.71
2022-08-14T22:25:53.575Z,19.93
2022-08-14T22:28:25.285Z,20.05
2022-08-14T22:30:54.963Z,19.96
2022-08-14T22:33:26.658Z,20.01
2022-08-14T22:35:57.909Z,20.03
2022-08-14T22:38:37.954Z,20.21
2022-08-14T22:41:27.881Z,20.16
2022-08-14T22:43:59.678Z,20.17
2022-08-14T22:46:27.050Z,20.18
2022-08-14T22:48:54.290Z,20.02
2022-08-14T22:51:26.070Z,20.16
2022-08-14T22:53:56.168Z,20.09
2022-08-14T22:56:29.346Z,20.19
2022-08-14T22:58:57.880Z,20.07
2022-08-14T23:01:55.744Z,20.13
2022-08-14T23:04:34.204Z,19.83
2022-08-14T23:07:05.253Z,19.81
2022-08-14T23:09:38.160Z,19.70
2022-08-14T23:12:28.036Z,19.63
2022-08-14T23:14:54.474Z,19.63
2022-08-14T23:17:24.779Z,19.60
2022-08-14T23:19:56.585Z,19.58
2022-08-14T23:22:26.195Z,19.59
2022-08-14T23:24:56.819Z,19.50
2022-08-14T23:28:02.452Z,19.82
2022-08-14T23:30:34.652Z,19.80
2022-08-14T23:33:02.610Z,19.82
2022-08-14T23:35:34.393Z,19.58
2022-08-14T23:38:05.549Z,19.50
2022-08-14T23:40:33.489Z,19.54
2022-08-14T23:43:04.690Z,19.66
2022-08-14T23:45:37.072Z,19.69
2022-08-14T23:48:04.179Z,19.71
2022-08-14T23:50:34.629Z,19.87
2022-08-14T23:53:28.586Z,19.93
2022-08-14T23:56:20.055Z,19.79
2022-08-14T23:58:59.078Z,19.48
